Station WAKP8 - 1890000 - Wake Island Image indicating link to RSS feed of recent meteorological observations for station WAKP8


Conditions at WAKP8 as of
2230 GMT on 05/27/2024:
     

Click on the graph icon in the table below to see a time series plot of the last five days of that observation.

5-day plot - Wind Direction Wind Direction (WDIR): E ( 80 deg true )
5-day plot - Wind Speed Wind Speed (WSPD): 14.0 kts
5-day plot - Wind Gust Wind Gust (GST): 18.1 kts
5-day plot - Atmospheric Pressure Atmospheric Pressure (PRES):29.98 in
5-day plot - Air Temperature Air Temperature (ATMP): 80.1 °F
5-day plot - Water Temperature Water Temperature (WTMP): 82.6 °F
5-day plot - Wind Speed at 10 Meters Wind Speed at 10 meters (WSPD10M): 15.5 kts
5-day plot - Wind Speed at 20 Meters Wind Speed at 20 meters (WSPD20M): 15.5 kts
5-day plot -  Wind Speed, Wind Gust and Atmospheric Pressure Combined plot of Wind Speed, Gust, and Air Pressure
NOS Water Level Observation Network Water Level
Previous observations
TIME
(GMT)
5-day plot - Wind Direction
WDIR
 
5-day plot - Wind Speed
WSPD
kts
5-day plot - Wind Gust
GST
kts
5-day plot - Wave Height
WVHT
ft
5-day plot - Dominant Wave Period
DPD
sec
5-day plot - Average Wave Period
APD
sec
5-day plot - Mean Wave Direction
MWD
 
5-day plot - Atmospheric Pressure
PRES
in
5-day plot - Pressure Tendency
PTDY
in
5-day plot - Air Temperature
ATMP
°F
5-day plot - Water Temperature
WTMP
°F
5-day plot - Dew Point
DEWP
°F
5-day plot - Salinity
SAL
psu
5-day plot - Visibility
VIS
nmi
5-day plot - Tide (above MLLW)
TIDE
ft
2024-05-27 2224 E 14.0 18.1----29.99- 79.9 82.6----
2024-05-27 2218 E 14.0 18.1----29.99- 79.9 82.6----
2024-05-27 2212 E 13.0 18.1----29.99- 79.9 82.6----
2024-05-27 2206 E 14.0 19.0----29.98- 79.9 82.6----
2024-05-27 2200--------- 80.1 82.6----
2024-05-27 2154--------- 80.1 82.6----
2024-05-27 2148 E 13.0 18.1----29.98- 79.9 82.6----
2024-05-27 2142 E 14.0 19.0----29.98- 80.1 82.6----
2024-05-27 2136 E 13.0 18.1----29.98- 80.2 82.6----
2024-05-27 2130 E 13.0 19.0----29.98-- 82.6----
2024-05-27 2124 E 13.0 17.1----29.98-- 82.6----
2024-05-27 2118 E 15.0 18.1----29.98- 79.7 82.6----
2024-05-27 2112 E 14.0 19.0----29.98- 79.5 82.6----
2024-05-27 2106 E 14.0 19.0----29.98- 79.9 82.6----
2024-05-27 2100ENE 14.0 19.0----29.98+0.04 79.9 82.6----
2024-05-27 2054 E 14.0 19.0----29.98- 79.9 82.6----
2024-05-27 2048 E 14.0 20.0----29.98- 79.7 82.6----
2024-05-27 2042 E 11.1 17.1----29.98- 79.9 82.6----
2024-05-27 2036 E 13.0 18.1----29.98- 79.7 82.6----
2024-05-27 2030-------29.98- 79.5 82.4----
2024-05-27 2024-------29.98- 79.7 82.4----
2024-05-27 2018ENE 17.1 20.0----29.98- 79.2 82.4----
2024-05-27 2012 E 13.0 18.1----29.98- 79.5 82.6----
2024-05-27 2006 E 13.0 18.1----29.98- 79.7 82.4----
2024-05-27 2000ENE 13.0 18.1----29.97+0.03 79.5 82.4----
2024-05-27 1954 E 13.0 19.0----29.97- 79.3 82.4----
2024-05-27 1948 E 13.0 20.0------ 79.5 82.4----
2024-05-27 1942 E 14.0 19.0------ 79.5 82.4----
2024-05-27 1936ENE 13.0 19.0------ 79.0 82.4----
2024-05-27 1930 E 15.0 19.0----29.97- 78.6 82.4----
2024-05-27 1924ENE 12.0 18.1----29.97- 79.0 82.6----
2024-05-27 1918 E 13.0 17.1----29.96- 78.8 82.6----
2024-05-27 1912 E 15.0 18.1----29.96- 78.4 82.6----
2024-05-27 1906 E 15.0 19.0----29.96- 78.8 82.6----
2024-05-27 1900 E 14.0 18.1----29.96+0.02 79.3 82.6----
2024-05-27 1854 E 13.0 19.0----29.96- 79.2 82.6----
2024-05-27 1848 E 14.0 18.1----29.96- 79.2 82.6----
2024-05-27 1842ENE 13.0 19.0----29.95- 78.8 82.6----
2024-05-27 1836ENE 13.0 19.0----29.95- 78.3 82.6----
2024-05-27 1830 E 15.0 18.1----29.95- 78.8 82.6----
2024-05-27 1824 E 12.0 18.1----29.94- 79.2 82.6----
2024-05-27 1818 E 13.0 18.1----29.94- 79.2 82.6----
2024-05-27 1812 E 13.0 17.1----29.94- 79.0 82.6----
2024-05-27 1806 E 13.0 17.1----29.94- 79.2 82.6----
2024-05-27 1800 E 13.0 15.9----29.94+0.01 79.0 82.6----
2024-05-27 1754 E 14.0 17.1----29.94- 78.6 82.6----
2024-05-27 1748 E 12.0 15.9----29.94-- 82.6----
2024-05-27 1742 E 12.0 17.1----29.94-- 82.6----
2024-05-27 1736 E 12.0 15.9----29.94-- 82.6----
2024-05-27 1730ENE 14.0 21.0----29.94- 78.8 82.6----
2024-05-27 1724 E 12.0 15.9----29.94- 79.0 82.6----
2024-05-27 1718ENE 13.0 18.1----29.94- 79.0 82.6----
2024-05-27 1712 E 14.0 20.0----29.94- 79.0 82.6----
2024-05-27 1706 E 13.0 18.1----29.94- 78.8 82.8----
2024-05-27 1700 E 13.0 18.1----29.94+0.00 79.2 82.8----
2024-05-27 1654ENE 14.0 19.0----29.94- 79.2 82.8----
2024-05-27 1648ENE 14.0 19.0----29.94- 79.2 82.8----
2024-05-27 1642 E 13.0 18.1----29.94- 79.2 82.8----
2024-05-27 1636 E 13.0 18.1----29.94- 79.2 82.8----
2024-05-27 1630 E 14.0 20.0----29.94- 79.3 82.8----
2024-05-27 1624ENE 14.0 18.1----29.93- 79.2 82.8----
2024-05-27 1618 E 15.0 19.0----29.93-- 82.8----
2024-05-27 1612 E 14.0 19.0----29.93- 79.2 82.8----
2024-05-27 1606 E 13.0 19.0----29.93- 79.2 82.8----
2024-05-27 1600ENE 13.0 19.0----29.93-0.02 79.2 82.9----
2024-05-27 1554 E 14.0 18.1----29.93- 79.2 82.9----
2024-05-27 1548 E 15.0 20.0----29.93- 79.2 82.9----
2024-05-27 1542ENE 15.9 20.0----29.93- 79.2 82.9----
2024-05-27 1536 E 15.0 20.0----29.93- 79.2 82.9----
2024-05-27 1530ENE 14.0 19.0----29.93- 79.3 82.9----
2024-05-27 1524 E 15.0 20.0----29.93- 79.2 82.9----
2024-05-27 1518ENE 12.0 15.9----29.93- 79.3 82.9----
2024-05-27 1512ENE 15.0 20.0----29.93- 79.2 82.9----
2024-05-27 1506 E 13.0 20.0----29.93- 79.3 82.9----
2024-05-27 1500ENE 15.0 20.0----29.93-0.03 79.3 82.9----
2024-05-27 1454 E 13.0 19.0----29.93- 79.3 82.9----
2024-05-27 1448ENE 14.0 18.1----29.93-- 82.9----
2024-05-27 1442 E 14.0 19.0----29.93-- 82.9----
2024-05-27 1436 E 13.0 19.0----29.93-- 82.9----
2024-05-27 1430 E 15.0 19.0----29.93- 79.3 83.1----
2024-05-27 1424 E 15.0 20.0----29.93- 79.2 83.1----
2024-05-27 1418 E 12.0 18.1----29.94- 79.2 83.1----
2024-05-27 1412ENE 13.0 18.1----29.94- 79.2 83.1----
2024-05-27 1406 E 14.0 19.0----29.94- 79.3 83.1----
2024-05-27 1400 E 13.0 17.1----29.94-0.03 79.3 83.1----
2024-05-27 1354 E 14.0 18.1----29.94- 79.3 83.1----
2024-05-27 1348 E 14.0 18.1----29.95- 79.5 83.1----
2024-05-27 1342 E 14.0 17.1----29.95- 79.3 83.1----
2024-05-27 1336 E 14.0 17.1----29.95- 79.3 83.1----
2024-05-27 1330 E 14.0 19.0----29.95- 79.3 83.1----
2024-05-27 1324 E 14.0 19.0----29.95- 79.3 83.1----
2024-05-27 1318 E 13.0 18.1----29.96- 79.3 83.1----
2024-05-27 1312 E 13.0 18.1----29.96- 79.3 83.3----
2024-05-27 1306 E 14.0 18.1----29.96- 79.3 83.3----
2024-05-27 1300 E 12.0 15.9----29.96-0.01 79.5 83.3----
2024-05-27 1254 E 14.0 19.0----29.96- 79.5 83.3----
2024-05-27 1248 E 14.0 18.1----29.96- 79.3 83.3----
2024-05-27 1242 E 13.0 17.1----29.96- 79.3 83.3----
2024-05-27 1236 E 14.0 20.0----29.96- 79.5 83.3----
2024-05-27 1230 E 14.0 20.0----29.96- 79.5 83.3----
2024-05-27 1224 E 12.0 19.0----29.96- 79.5 83.5----
2024-05-27 1218ENE 14.0 21.0----29.96- 79.3 83.5----
2024-05-27 1212ENE 15.9 21.0----29.96- 79.5 83.5----
2024-05-27 1206ENE 14.0 20.0----29.96- 79.5 83.5----
2024-05-27 1200 E 14.0 19.0----29.96+0.00 79.5 83.5----
2024-05-27 1154ENE 15.0 19.0----29.96- 79.7 83.5----
2024-05-27 1148ENE 15.0 20.0----29.96- 79.5 83.5----
2024-05-27 1142ENE 15.9 20.0----29.96- 79.5 83.5----
2024-05-27 1136ENE 17.1 22.0----29.96- 79.7 83.5----
2024-05-27 1130ENE 17.1 21.0----29.97- 79.9 83.5----
2024-05-27 1124ENE 15.9 21.0----29.97- 79.9 83.5----
2024-05-27 1118ENE 15.9 20.0----29.97- 79.9 83.5----
2024-05-27 1112ENE 13.0 17.1----29.97- 79.7 83.5----
2024-05-27 1106ENE 13.0 17.1----29.97- 79.9 83.5----
2024-05-27 1100ENE 13.0 20.0----29.97+0.03 79.9 83.7----
2024-05-27 1054ENE 14.0 18.1----29.97- 79.9 83.7----
2024-05-27 1048 E 14.0 17.1----29.97- 79.7 83.7----
2024-05-27 1042 E 12.0 15.9----29.97- 79.9 83.7----
2024-05-27 1036ENE 13.0 17.1----29.97- 79.9 83.7----
2024-05-27 1030 E 14.0 18.1----29.97- 79.9 83.7----
2024-05-27 1024 E 14.0 18.1----29.97- 79.9 83.8----
2024-05-27 1018 E 14.0 19.0----29.97- 79.9 83.8----
2024-05-27 1012 E 13.0 15.9----29.97- 79.9 83.8----
2024-05-27 1006 E 13.0 18.1----29.97- 79.7 83.8----
2024-05-27 1000 E 14.0 18.1----29.97+0.04 79.7 83.8----
2024-05-27 0954ENE 15.9 21.0----29.97- 79.7 83.8----
2024-05-27 0948 E 15.0 19.0----29.97- 79.5 83.8----
2024-05-27 0942 E 14.0 21.0----29.96- 79.9 83.8----
2024-05-27 0936ENE 15.0 21.0----29.96- 80.1 83.8----
2024-05-27 0930ENE 14.0 19.0----29.96- 80.1 83.8----
2024-05-27 0924ENE 14.0 20.0----29.96- 80.1 83.8----
2024-05-27 0918ENE 15.9 19.0----29.96- 79.9 83.8----
2024-05-27 0912ENE 15.0 20.0----29.96- 80.1 83.8----
2024-05-27 0906ENE 17.1 20.0----29.96- 79.9 83.8----
2024-05-27 0900ENE 15.9 21.0----29.96+0.04 80.1 83.8----
2024-05-27 0854ENE 15.0 20.0----29.95- 79.7 83.8----
2024-05-27 0848 E 15.9 20.0----29.96- 79.5 84.0----
2024-05-27 0842ENE 15.9 20.0----29.95- 80.2 84.0----
2024-05-27 0836ENE 15.0 18.1----29.95- 80.1 84.0----
2024-05-27 0830ENE 15.9 19.0----29.95- 80.1 84.0----
2024-05-27 0824ENE 15.0 20.0----29.95- 79.9 84.0----
2024-05-27 0818ENE 17.1 21.0----29.95- 79.3 84.0----
2024-05-27 0812ENE 14.0 19.0----29.95- 80.2 84.0----
2024-05-27 0806ENE 15.0 19.0----29.94- 79.7 84.0----
2024-05-27 0800ENE 15.0 19.0----29.94+0.04 79.5 84.0----
2024-05-27 0754ENE 17.1 19.0----29.94- 79.9 84.0----
2024-05-27 0748ENE 15.0 18.1----29.94- 79.9 84.0----
2024-05-27 0742ENE 14.0 17.1----29.94- 80.4 84.0----
2024-05-27 0736ENE 15.0 19.0----29.93- 80.1 84.0----
2024-05-27 0730ENE 15.0 19.0----29.93- 80.1 84.0----
2024-05-27 0724ENE 15.9 19.0----29.93- 80.1 84.0----
2024-05-27 0718ENE 14.0 19.0----29.93- 80.4 84.0----
2024-05-27 0712ENE 14.0 19.0----29.93- 80.2 84.2----
2024-05-27 0706ENE 14.0 17.1----29.93- 80.4 84.2----
2024-05-27 0700ENE 13.0 19.0----29.93+0.02 80.4 84.2----
2024-05-27 0654ENE 12.0 15.9----29.93- 80.4 84.2----
2024-05-27 0648ENE 13.0 15.9----29.93- 80.6 84.2----
2024-05-27 0642ENE 13.0 18.1----29.93- 80.4 84.2----
2024-05-27 0636ENE 12.0 15.9----29.92- 80.6 84.2----
2024-05-27 0630 E 13.0 15.9----29.92- 80.6 84.2----
2024-05-27 0624ENE 11.1 17.1----29.92- 80.6 84.2----
2024-05-27 0618ENE 12.0 14.0----29.92- 80.4 84.4----
2024-05-27 0612 E 11.1 15.9----29.92- 81.0 84.4----
2024-05-27 0606ENE 12.0 17.1----29.91- 80.6 84.4----
2024-05-27 0600ENE 12.0 15.9----29.91+0.00 80.6 84.4----
2024-05-27 0554 E 12.0 15.0----29.91- 81.0 84.4----
2024-05-27 0548ENE 11.1 15.0----29.91- 81.0 84.4----
2024-05-27 0542ENE 12.0 15.9----29.91- 80.6 84.4----
2024-05-27 0536ENE 13.0 17.1----29.91- 80.6 84.4----
2024-05-27 0530ENE 12.0 15.0----29.91- 80.2 84.4----
2024-05-27 0524 E 13.0 17.1----29.91- 79.7 84.4----
2024-05-27 0518 E 13.0 17.1----29.91- 79.3 84.4----
2024-05-27 0512ESE 12.0 19.0----29.91- 78.6 84.4----
2024-05-27 0506 E 15.9 20.0----29.91- 78.1 84.4----
2024-05-27 0500 E 11.1 15.9----29.91-0.01 80.2 84.4----
2024-05-27 0454ENE 9.9 15.0----29.91- 79.5 84.4----
2024-05-27 0448ENE 14.0 20.0----29.91- 79.0 84.4----
2024-05-27 0442ENE 15.9 20.0----29.91- 80.2 84.2----
2024-05-27 0436 E 11.1 15.0----29.91- 81.0 84.2----
2024-05-27 0430 E 12.0 15.9----29.91- 81.0 84.2----
2024-05-27 0424 E 11.1 15.9----29.91- 81.0 84.2----
2024-05-27 0418 E 14.0 17.1----29.91- 80.4 84.2----
2024-05-27 0412 E 12.0 15.0----29.91- 80.8 84.2----
2024-05-27 0406 E 11.1 18.1----29.91- 81.0 84.2----
2024-05-27 0400 E 12.0 15.0----29.91-0.03 80.6 84.2----
2024-05-27 0354 E 12.0 17.1----29.91- 80.2 84.0----
2024-05-27 0348-------29.91-- 84.0----
2024-05-27 0342-------29.91-- 84.0----
2024-05-27 0336-------29.91-- 84.0----
2024-05-27 0330ENE 9.9 15.0----29.91- 81.1 84.0----
2024-05-27 0324ENE 11.1 13.0----29.91- 80.8 84.0----
2024-05-27 0318ENE 9.9 13.0----29.91- 80.8 84.0----
2024-05-27 0312ENE 11.1 14.0----29.91- 81.0 84.0----
2024-05-27 0306ENE 11.1 14.0----29.91- 81.1 84.0----
2024-05-27 0300 E 11.1 14.0----29.92-0.03 81.0 84.0----
2024-05-27 0254ENE 9.9 13.0----29.92- 81.0 83.8----
2024-05-27 0248 E 8.9 15.0----29.92- 81.0 83.8----
2024-05-27 0242 E 8.9 14.0----29.92- 81.1 83.7----
2024-05-27 0236 E 8.9 13.0----29.92- 80.8 83.7----
2024-05-27 0230---------- 83.7----
2024-05-27 0224---------- 83.7----
2024-05-27 0218 E 12.0 15.9----29.92-------
2024-05-27 0212 E 11.1 14.0----29.92-------
2024-05-27 0206 E 9.9 13.0----29.92-------
2024-05-27 0200 E 9.9 14.0----29.92-0.05- 83.5----
2024-05-27 0154 E 12.0 15.0----29.92-- 83.5----
2024-05-27 0148 E 9.9 13.0----29.93- 81.0 83.5----
2024-05-27 0142 E 11.1 13.0----29.93- 81.0 83.5----
2024-05-27 0136 E 12.0 15.0----29.93- 80.8 83.5----
2024-05-27 0130 E 12.0 15.0----29.93- 80.6 83.5----
2024-05-27 0124 E 8.0 11.1----29.93- 80.6 83.5----
2024-05-27 0118 E 8.9 9.9----29.93-- 83.5----
2024-05-27 0112 E 8.0 11.1----29.93-- 83.5----
2024-05-27 0106 E 8.0 9.9----29.93-- 83.5----
2024-05-27 0100 E 8.9 13.0----29.94-0.04- 83.3----
2024-05-27 0054 E 8.9 12.0----29.94-- 83.3----
2024-05-27 0048 E 8.9 13.0----29.94-- 83.3----
2024-05-27 0042 E 8.9 12.0----29.94-- 83.1----
2024-05-27 0036 E 8.9 12.0----29.94-- 83.1----
2024-05-27 0030 E 7.0 12.0----29.94- 80.4 83.1----
2024-05-27 0024 E 8.0 9.9----29.95- 80.1 83.1----
2024-05-27 0018 E 8.0 11.1----29.95-- 83.1----
2024-05-27 0012 E 8.0 9.9----29.95-- 82.9----
2024-05-27 0006 E 8.9 12.0----29.95-- 82.9----
2024-05-27 0000 E 5.1 7.0----29.95-0.01- 82.9----
2024-05-26 2354 E 5.1 8.0----29.95-- 82.9----
2024-05-26 2348-------29.95-- 82.8----
2024-05-26 2342-------29.96-- 82.8----
2024-05-26 2336-------29.96-- 82.8----
2024-05-26 2330 E 9.9 15.0----29.96-- 82.8----
2024-05-26 2324 E 12.0 18.1----29.97-- 82.8----
2024-05-26 2300 E 13.0 15.9----29.97+0.02 76.5 82.8----
2024-05-26 2254 E 13.0 17.1----29.97- 76.3 82.8----